createdAt,value
2023-02-03T00:05:26.283Z,9.32
2023-02-03T00:07:53.525Z,9.27
2023-02-03T00:10:21.528Z,9.27
2023-02-03T00:12:54.937Z,7.43
2023-02-03T00:15:23.204Z,8.70
2023-02-03T00:17:51.014Z,7.00
2023-02-03T00:20:17.816Z,8.13
2023-02-03T00:22:44.372Z,6.93
2023-02-03T00:25:12.420Z,8.60
2023-02-03T00:27:39.008Z,7.15
2023-02-03T00:30:06.604Z,6.85
2023-02-03T00:32:33.225Z,7.05
2023-02-03T00:34:59.905Z,6.63
2023-02-03T00:37:26.565Z,7.80
2023-02-03T00:39:53.299Z,6.43
2023-02-03T00:42:19.991Z,7.18
2023-02-03T00:44:46.635Z,7.32
2023-02-03T00:47:13.140Z,7.93
2023-02-03T00:49:39.842Z,9.05
2023-02-03T00:52:06.379Z,9.82
2023-02-03T00:54:33.802Z,9.57
2023-02-03T00:57:00.498Z,10.68
2023-02-03T00:59:27.048Z,9.80
2023-02-03T01:01:53.673Z,10.38
2023-02-03T01:04:20.432Z,10.60
2023-02-03T01:06:46.965Z,10.40
2023-02-03T01:09:13.539Z,11.30
2023-02-03T01:11:40.407Z,12.45
2023-02-03T01:14:07.631Z,10.48
2023-02-03T01:16:38.193Z,10.00
2023-02-03T01:19:05.026Z,10.50
2023-02-03T01:21:32.243Z,9.63
2023-02-03T01:23:59.566Z,10.18
2023-02-03T01:26:26.515Z,9.50
2023-02-03T01:28:55.239Z,9.00
2023-02-03T01:31:28.789Z,7.28
2023-02-03T01:33:56.721Z,8.57
2023-02-03T01:36:26.365Z,7.13
2023-02-03T01:38:53.566Z,7.05
2023-02-03T01:41:25.781Z,7.55
2023-02-03T01:43:54.933Z,8.18
2023-02-03T01:46:21.421Z,9.05
2023-02-03T01:48:48.118Z,8.98
2023-02-03T01:51:15.027Z,7.93
2023-02-03T01:53:42.279Z,8.27
2023-02-03T01:56:09.700Z,11.23
2023-02-03T01:58:39.661Z,11.13
2023-02-03T02:01:07.081Z,9.73
2023-02-03T02:04:04.507Z,11.02
2023-02-03T02:06:31.165Z,8.82
2023-02-03T02:09:00.745Z,9.43
2023-02-03T02:11:28.220Z,8.30
2023-02-03T02:13:58.175Z,9.45
2023-02-03T02:16:45.741Z,9.05
2023-02-03T02:19:37.479Z,9.90
2023-02-03T02:22:17.616Z,10.52
2023-02-03T02:25:10.045Z,7.80
2023-02-03T02:27:42.648Z,8.25
2023-02-03T02:30:18.255Z,8.73
2023-02-03T02:32:51.603Z,7.55
2023-02-03T02:35:33.393Z,8.23
2023-02-03T02:38:39.716Z,9.50
2023-02-03T02:41:13.512Z,9.82
2023-02-03T02:43:47.269Z,11.07
2023-02-03T02:46:18.123Z,11.48
2023-02-03T02:49:10.167Z,11.48
2023-02-03T02:51:40.592Z,11.30
2023-02-03T02:54:11.895Z,12.52
2023-02-03T02:56:40.675Z,11.70
2023-02-03T02:59:08.810Z,11.88
2023-02-03T03:01:35.719Z,10.68
2023-02-03T03:04:06.629Z,11.68
2023-02-03T03:06:56.377Z,10.05
2023-02-03T03:09:48.403Z,10.20
2023-02-03T03:12:21.091Z,9.52
2023-02-03T03:14:53.506Z,7.97
2023-02-03T03:19:56.187Z,7.07
2023-02-03T03:22:34.336Z,7.90
2023-02-03T03:25:15.950Z,7.10
2023-02-03T03:27:49.736Z,7.87
2023-02-03T03:30:37.511Z,7.53
2023-02-03T03:33:05.679Z,8.95
2023-02-03T03:35:55.203Z,7.15
2023-02-03T03:38:31.937Z,6.55
2023-02-03T03:41:05.716Z,6.32
2023-02-03T03:43:38.950Z,5.82
2023-02-03T03:46:14.056Z,6.65
2023-02-03T03:48:50.463Z,6.20
2023-02-03T03:51:26.654Z,6.40
2023-02-03T03:53:56.281Z,6.40
2023-02-03T03:56:28.668Z,8.43
2023-02-03T03:58:57.797Z,6.50
2023-02-03T04:01:25.260Z,5.70
2023-02-03T04:04:02.789Z,6.07
2023-02-03T04:06:29.380Z,7.38
2023-02-03T04:08:56.114Z,7.50
2023-02-03T04:11:41.164Z,7.38
2023-02-03T04:14:07.831Z,7.00
2023-02-03T04:16:34.415Z,6.53
2023-02-03T04:19:00.997Z,6.82
2023-02-03T04:21:27.504Z,8.77
2023-02-03T04:23:56.502Z,7.32
2023-02-03T04:26:23.847Z,6.95
2023-02-03T04:28:52.546Z,7.07
2023-02-03T04:31:19.263Z,7.45
2023-02-03T04:33:45.924Z,7.50
2023-02-03T04:36:12.533Z,7.80
2023-02-03T04:38:39.103Z,7.55
2023-02-03T04:41:05.632Z,7.00
2023-02-03T04:43:32.257Z,8.02
2023-02-03T04:46:02.107Z,8.23
2023-02-03T04:48:29.029Z,6.65
2023-02-03T04:50:55.607Z,6.82
2023-02-03T04:53:22.330Z,9.13
2023-02-03T04:55:49.078Z,7.20
2023-02-03T04:58:15.664Z,7.65
2023-02-03T05:00:42.230Z,6.75
2023-02-03T05:03:08.868Z,7.20
2023-02-03T05:05:35.365Z,6.47
2023-02-03T05:08:01.953Z,6.85
2023-02-03T05:10:28.770Z,14.40
2023-02-03T05:12:55.548Z,13.02
2023-02-03T05:15:22.070Z,9.07
2023-02-03T05:17:48.865Z,8.25
2023-02-03T05:20:15.436Z,6.70
2023-02-03T05:22:42.003Z,5.72
2023-02-03T05:25:08.913Z,9.50
2023-02-03T05:27:37.948Z,7.10
2023-02-03T05:30:05.241Z,4.50
2023-02-03T05:32:32.038Z,9.63
2023-02-03T05:34:58.544Z,28.35
2023-02-03T05:37:25.105Z,12.07
2023-02-03T05:39:51.667Z,19.67
2023-02-03T05:42:18.185Z,13.45
2023-02-03T05:44:44.694Z,5.80
2023-02-03T05:47:11.301Z,12.82
2023-02-03T05:49:37.787Z,10.57
2023-02-03T05:52:04.526Z,11.75
2023-02-03T05:54:31.688Z,28.55
2023-02-03T05:56:58.328Z,26.20
2023-02-03T05:59:24.875Z,19.70
2023-02-03T06:01:51.516Z,14.32
2023-02-03T06:04:18.147Z,11.18
2023-02-03T06:06:44.948Z,10.85
2023-02-03T06:09:11.460Z,11.63
2023-02-03T06:11:38.138Z,13.85
2023-02-03T06:14:04.858Z,20.60
2023-02-03T06:16:31.647Z,13.07
2023-02-03T06:18:59.627Z,20.00
2023-02-03T06:21:26.793Z,16.50
2023-02-03T06:23:53.566Z,22.60
2023-02-03T06:26:20.303Z,12.70
2023-02-03T06:28:46.886Z,10.90
2023-02-03T06:31:13.684Z,11.80
2023-02-03T06:33:40.229Z,15.00
2023-02-03T06:36:07.019Z,15.88
2023-02-03T06:38:33.663Z,12.35
2023-02-03T06:41:00.285Z,16.35
2023-02-03T06:43:26.817Z,48.65
2023-02-03T06:45:53.495Z,28.80
2023-02-03T06:48:20.018Z,22.63
2023-02-03T06:50:48.629Z,19.23
2023-02-03T06:53:15.459Z,17.10
2023-02-03T06:55:42.155Z,31.92
2023-02-03T06:58:08.792Z,42.47
2023-02-03T07:00:35.545Z,32.58
2023-02-03T07:03:02.872Z,19.00
2023-02-03T07:05:29.724Z,24.80
2023-02-03T07:07:56.425Z,118.13
2023-02-03T07:10:23.185Z,27.70
2023-02-03T07:12:50.930Z,22.40
2023-02-03T07:15:18.082Z,62.63
2023-02-03T07:17:48.543Z,92.43
2023-02-03T07:20:15.301Z,49.67
2023-02-03T07:22:43.879Z,36.50
2023-02-03T07:25:10.518Z,53.03
2023-02-03T07:27:37.031Z,26.13
2023-02-03T07:30:04.716Z,45.15
2023-02-03T07:32:32.860Z,47.08
2023-02-03T07:35:01.283Z,89.35
2023-02-03T07:37:27.847Z,100.28
2023-02-03T07:39:54.487Z,76.53
2023-02-03T07:42:20.982Z,30.95
2023-02-03T07:44:50.647Z,26.33
2023-02-03T07:47:17.151Z,19.92
2023-02-03T07:49:43.763Z,35.08
2023-02-03T07:52:10.327Z,21.90
2023-02-03T07:54:36.867Z,100.60
2023-02-03T07:57:03.471Z,36.40
2023-02-03T07:59:30.098Z,16.00
2023-02-03T08:01:56.644Z,30.73
2023-02-03T08:04:24.368Z,22.77
2023-02-03T08:06:50.981Z,23.65
2023-02-03T08:09:17.623Z,18.65
2023-02-03T08:11:44.129Z,20.65
2023-02-03T08:14:10.742Z,27.40
2023-02-03T08:16:37.577Z,26.27
2023-02-03T08:19:04.186Z,25.65
2023-02-03T08:21:31.062Z,24.70
2023-02-03T08:23:57.622Z,24.30
2023-02-03T08:26:24.136Z,21.80
2023-02-03T08:28:50.957Z,20.30
2023-02-03T08:31:17.926Z,18.10
2023-02-03T08:33:44.655Z,21.58
2023-02-03T08:36:14.061Z,17.23
2023-02-03T08:38:41.794Z,16.77
2023-02-03T08:41:11.002Z,19.52
2023-02-03T08:43:37.715Z,21.80
2023-02-03T08:46:06.125Z,18.50
2023-02-03T08:48:33.247Z,17.13
2023-02-03T08:51:00.264Z,20.85
2023-02-03T08:53:27.500Z,14.65
2023-02-03T08:55:54.120Z,15.23
2023-02-03T08:58:20.836Z,18.00
2023-02-03T09:00:49.782Z,15.25
2023-02-03T09:03:16.437Z,16.35
2023-02-03T09:05:43.066Z,20.65
2023-02-03T09:08:09.716Z,17.42
2023-02-03T09:10:36.578Z,17.95
2023-02-03T09:13:03.634Z,15.93
2023-02-03T09:15:30.452Z,16.30
2023-02-03T09:17:57.893Z,15.18
2023-02-03T09:20:26.425Z,15.20
2023-02-03T09:22:54.927Z,15.77
2023-02-03T09:25:21.577Z,13.07
2023-02-03T09:27:48.319Z,12.32
2023-02-03T09:30:15.044Z,15.20
2023-02-03T09:32:42.105Z,15.00
2023-02-03T09:35:17.594Z,15.30
2023-02-03T09:37:44.152Z,15.75
2023-02-03T09:40:20.829Z,15.27
2023-02-03T09:43:04.074Z,13.60
2023-02-03T09:45:31.817Z,13.70
2023-02-03T09:48:05.567Z,17.25
2023-02-03T09:50:35.650Z,16.50
2023-02-03T09:53:17.774Z,15.93
2023-02-03T09:55:46.268Z,14.88
2023-02-03T09:58:15.594Z,14.57
2023-02-03T10:00:46.295Z,13.02
2023-02-03T10:03:49.225Z,12.98
2023-02-03T10:08:50.957Z,10.38
2023-02-03T10:11:41.665Z,11.68
2023-02-03T10:14:27.625Z,12.98
2023-02-03T10:17:08.512Z,10.90
2023-02-03T10:19:48.114Z,12.35
2023-02-03T10:22:20.087Z,12.07
2023-02-03T10:24:49.863Z,13.82
2023-02-03T10:27:24.590Z,13.63
2023-02-03T10:29:59.232Z,13.15
2023-02-03T10:32:27.821Z,10.05
2023-02-03T10:34:55.318Z,8.65
2023-02-03T10:37:32.918Z,9.68
2023-02-03T10:40:01.693Z,7.45
2023-02-03T10:42:51.273Z,8.20
2023-02-03T10:45:18.374Z,9.73
2023-02-03T10:47:52.308Z,7.28
2023-02-03T10:50:24.558Z,9.02
2023-02-03T10:52:51.213Z,9.25
2023-02-03T10:55:26.901Z,10.20
2023-02-03T10:57:54.325Z,10.52
2023-02-03T11:00:29.116Z,11.20
2023-02-03T11:03:00.642Z,10.32
2023-02-03T11:05:27.430Z,9.50
2023-02-03T11:07:56.779Z,12.10
2023-02-03T11:10:26.600Z,17.85
2023-02-03T11:13:08.829Z,17.73
2023-02-03T11:15:35.520Z,15.15
2023-02-03T11:18:02.099Z,14.57
2023-02-03T11:20:29.755Z,14.50
2023-02-03T11:22:56.627Z,11.77
2023-02-03T11:25:32.427Z,14.43
2023-02-03T11:28:06.819Z,10.52
2023-02-03T11:30:34.707Z,10.65
2023-02-03T11:33:02.588Z,16.30
2023-02-03T11:35:31.700Z,13.43
2023-02-03T11:38:02.053Z,12.98
2023-02-03T11:40:31.038Z,13.43
2023-02-03T11:42:57.565Z,13.07
2023-02-03T11:45:44.855Z,12.65
2023-02-03T11:48:23.352Z,23.17
2023-02-03T11:51:34.934Z,15.32
2023-02-03T11:54:13.468Z,20.30
2023-02-03T11:56:58.347Z,20.13
2023-02-03T11:59:57.328Z,31.52
2023-02-03T12:02:39.041Z,27.40
2023-02-03T12:05:17.551Z,23.02
2023-02-03T12:07:44.090Z,36.90
2023-02-03T12:10:32.014Z,26.90
2023-02-03T12:12:58.710Z,31.90
2023-02-03T12:15:28.213Z,26.83
2023-02-03T12:18:07.147Z,19.05
2023-02-03T12:20:33.667Z,19.95
2023-02-03T12:23:12.347Z,17.80
2023-02-03T12:25:57.249Z,14.55
2023-02-03T12:28:49.015Z,13.35
2023-02-03T12:31:22.989Z,9.47
2023-02-03T12:33:56.453Z,9.63
2023-02-03T12:37:05.424Z,9.20
2023-02-03T12:39:41.498Z,25.58
2023-02-03T12:42:31.223Z,26.58
2023-02-03T12:45:11.728Z,39.78
2023-02-03T12:47:51.475Z,22.75
2023-02-03T12:50:21.771Z,23.00
2023-02-03T12:52:58.502Z,25.13
2023-02-03T12:55:37.383Z,30.60
2023-02-03T12:58:12.739Z,17.95
2023-02-03T13:00:51.609Z,38.90
2023-02-03T13:03:36.360Z,92.30
2023-02-03T13:06:22.592Z,92.78
2023-02-03T13:08:52.053Z,53.75
2023-02-03T13:11:37.429Z,100.75
2023-02-03T13:14:14.318Z,130.25
2023-02-03T13:16:44.709Z,72.97
2023-02-03T13:19:18.684Z,60.55
2023-02-03T13:21:47.831Z,37.20
2023-02-03T13:24:14.487Z,49.25
2023-02-03T13:27:01.207Z,32.90
2023-02-03T13:29:46.129Z,29.15
2023-02-03T13:32:15.530Z,33.67
2023-02-03T13:35:06.217Z,43.28
2023-02-03T13:37:43.644Z,48.95
2023-02-03T13:40:41.825Z,36.42
2023-02-03T13:43:32.054Z,39.88
2023-02-03T13:46:06.874Z,30.42
2023-02-03T13:48:35.617Z,25.67
2023-02-03T13:51:24.235Z,25.02
2023-02-03T13:53:59.053Z,19.58
2023-02-03T13:56:28.602Z,20.80
2023-02-03T13:58:59.553Z,17.23
2023-02-03T14:01:33.813Z,15.07
2023-02-03T14:04:01.427Z,17.30
2023-02-03T14:06:40.001Z,15.95
2023-02-03T14:09:30.968Z,20.08
2023-02-03T14:12:16.040Z,15.50
2023-02-03T14:14:44.993Z,17.80
2023-02-03T14:17:36.249Z,18.05
2023-02-03T14:20:24.116Z,16.33
2023-02-03T14:22:53.461Z,19.70
2023-02-03T14:25:21.351Z,17.42
2023-02-03T14:27:59.481Z,16.88
2023-02-03T14:30:26.274Z,20.02
2023-02-03T14:32:57.861Z,19.08
2023-02-03T14:35:35.474Z,20.15
2023-02-03T14:38:05.259Z,23.05
2023-02-03T14:40:47.043Z,19.67
2023-02-03T14:43:28.888Z,20.65
2023-02-03T14:46:07.681Z,17.77
2023-02-03T14:48:45.002Z,27.08
2023-02-03T14:51:39.686Z,61.28
2023-02-03T14:54:41.422Z,26.52
2023-02-03T14:57:43.782Z,19.38
2023-02-03T15:00:19.502Z,21.30
2023-02-03T15:03:09.019Z,27.38
2023-02-03T15:05:40.216Z,26.83
2023-02-03T15:08:43.244Z,33.92
2023-02-03T15:11:23.142Z,41.28
2023-02-03T15:13:50.048Z,24.70
2023-02-03T15:16:20.910Z,42.75
2023-02-03T15:18:57.786Z,34.50
2023-02-03T15:21:25.246Z,20.23
2023-02-03T15:23:53.232Z,9.13
2023-02-03T15:26:25.384Z,9.00
2023-02-03T15:28:56.644Z,10.30
2023-02-03T15:31:46.009Z,7.47
2023-02-03T15:34:23.160Z,9.18
2023-02-03T15:36:54.419Z,7.57
2023-02-03T15:39:39.124Z,6.43
2023-02-03T15:42:14.432Z,5.70
2023-02-03T15:44:55.817Z,5.07
2023-02-03T15:47:32.258Z,5.65
2023-02-03T15:50:06.870Z,5.35
2023-02-03T15:52:40.625Z,6.65
2023-02-03T15:55:33.255Z,7.78
2023-02-03T15:58:00.458Z,6.25
2023-02-03T16:00:38.213Z,3.88
2023-02-03T16:03:15.796Z,4.97
2023-02-03T16:05:44.719Z,6.97
2023-02-03T16:08:34.837Z,6.28
2023-02-03T16:11:01.746Z,7.05
2023-02-03T16:13:29.825Z,8.60
2023-02-03T16:16:08.414Z,14.38
2023-02-03T16:18:36.744Z,9.32
2023-02-03T16:21:05.381Z,7.38
2023-02-03T16:23:32.917Z,8.07
2023-02-03T16:26:07.818Z,8.63
2023-02-03T16:28:53.112Z,9.05
2023-02-03T16:31:39.896Z,10.25
2023-02-03T16:34:32.632Z,8.60
2023-02-03T16:37:18.108Z,10.18
2023-02-03T16:40:03.662Z,9.18
2023-02-03T16:42:58.603Z,11.20
2023-02-03T16:45:44.408Z,10.00
2023-02-03T16:48:33.504Z,10.25
2023-02-03T16:51:12.817Z,15.82
2023-02-03T16:53:40.341Z,12.27
2023-02-03T16:56:07.218Z,12.90
2023-02-03T16:58:33.975Z,13.85
2023-02-03T17:01:02.948Z,14.60
2023-02-03T17:03:30.284Z,13.95
2023-02-03T17:05:57.521Z,14.73
2023-02-03T17:08:26.004Z,13.88
2023-02-03T17:10:52.791Z,14.52
2023-02-03T17:13:21.775Z,14.90
2023-02-03T17:15:52.526Z,14.50
2023-02-03T17:18:19.851Z,13.45
2023-02-03T17:20:47.486Z,15.07
2023-02-03T17:23:16.550Z,15.32
2023-02-03T17:25:47.907Z,15.07
2023-02-03T17:28:14.689Z,11.73
2023-02-03T17:30:41.662Z,16.77
2023-02-03T17:33:17.633Z,17.30
2023-02-03T17:35:45.307Z,17.08
2023-02-03T17:38:14.268Z,15.50
2023-02-03T17:54:29.138Z,19.67
2023-02-03T17:56:55.692Z,11.55
2023-02-03T17:59:22.299Z,11.38
2023-02-03T18:01:52.955Z,9.95
2023-02-03T18:04:19.603Z,13.48
2023-02-03T18:06:46.424Z,11.52
2023-02-03T18:09:16.462Z,21.20
2023-02-03T18:11:44.802Z,15.32
2023-02-03T18:14:13.066Z,11.38
2023-02-03T18:16:40.282Z,25.83
2023-02-03T18:19:11.689Z,16.25
2023-02-03T18:21:38.955Z,34.45
2023-02-03T18:24:05.880Z,13.15
2023-02-03T18:26:36.342Z,13.35
2023-02-03T18:29:05.477Z,12.32
2023-02-03T18:31:32.586Z,24.40
2023-02-03T18:34:03.347Z,14.38
2023-02-03T18:36:30.110Z,13.15
2023-02-03T18:38:56.687Z,16.58
2023-02-03T18:41:25.155Z,17.15
2023-02-03T18:43:52.278Z,20.92
2023-02-03T18:46:22.922Z,14.48
2023-02-03T18:48:50.258Z,14.70
2023-02-03T18:51:18.558Z,12.70
2023-02-03T18:53:46.643Z,14.15
2023-02-03T18:56:16.788Z,14.55
2023-02-03T18:58:43.547Z,13.57
2023-02-03T19:01:10.570Z,17.42
2023-02-03T19:03:38.655Z,16.65
2023-02-03T19:06:09.402Z,17.70
2023-02-03T19:08:36.056Z,15.75
2023-02-03T19:11:02.606Z,18.35
2023-02-03T19:13:29.207Z,15.00
2023-02-03T19:15:55.763Z,17.90
2023-02-03T19:18:22.436Z,16.55
2023-02-03T19:20:51.640Z,21.27
2023-02-03T19:23:18.289Z,18.42
2023-02-03T19:25:49.766Z,15.18
2023-02-03T19:28:20.278Z,17.13
2023-02-03T19:31:00.114Z,20.35
2023-02-03T19:33:32.955Z,16.00
2023-02-03T19:35:59.671Z,20.63
2023-02-03T19:38:26.313Z,18.05
2023-02-03T19:40:52.939Z,19.77
2023-02-03T19:43:19.680Z,22.08
2023-02-03T19:45:46.302Z,20.13
2023-02-03T19:48:13.711Z,14.15
2023-02-03T19:50:45.748Z,14.40
2023-02-03T19:53:17.293Z,15.73
2023-02-03T19:55:45.527Z,14.05
2023-02-03T19:58:13.940Z,13.98
2023-02-03T20:00:41.766Z,16.10
2023-02-03T20:03:08.771Z,13.65
2023-02-03T20:05:36.527Z,14.55
2023-02-03T20:08:04.070Z,15.07
2023-02-03T20:10:32.536Z,14.55
2023-02-03T20:13:02.206Z,13.73
2023-02-03T20:15:29.134Z,12.52
2023-02-03T20:17:56.218Z,11.90
2023-02-03T20:20:22.977Z,12.32
2023-02-03T20:22:49.898Z,11.45
2023-02-03T20:25:17.016Z,11.00
2023-02-03T20:27:43.612Z,10.95
2023-02-03T20:30:11.320Z,10.27
2023-02-03T20:32:38.531Z,12.10
2023-02-03T20:35:06.285Z,11.38
2023-02-03T20:37:35.891Z,12.00
2023-02-03T20:40:06.273Z,10.43
2023-02-03T20:42:36.631Z,11.25
2023-02-03T20:45:10.878Z,9.85
2023-02-03T20:47:37.629Z,7.82
2023-02-03T20:50:11.058Z,8.82
2023-02-03T20:52:37.992Z,15.18
2023-02-03T20:55:11.672Z,8.93
2023-02-03T20:57:38.789Z,9.82
2023-02-03T21:00:15.635Z,8.02
2023-02-03T21:03:16.035Z,9.80
2023-02-03T21:05:45.354Z,10.00
2023-02-03T21:08:19.956Z,11.75
2023-02-03T21:10:47.953Z,9.82
2023-02-03T21:13:35.861Z,12.82
2023-02-03T21:16:15.104Z,14.90
2023-02-03T21:18:51.965Z,14.02
2023-02-03T21:21:27.432Z,13.38
2023-02-03T21:23:54.814Z,13.23
2023-02-03T21:26:22.451Z,12.35
2023-02-03T21:28:51.730Z,11.80
2023-02-03T21:31:34.413Z,10.68
2023-02-03T21:34:23.580Z,11.00
2023-02-03T21:36:50.215Z,10.98
2023-02-03T21:39:28.076Z,10.90
2023-02-03T21:41:55.983Z,12.20
2023-02-03T21:44:32.130Z,12.63
2023-02-03T21:47:05.704Z,16.13
2023-02-03T21:49:34.112Z,16.52
2023-02-03T21:52:00.652Z,12.50
2023-02-03T21:54:30.360Z,18.08
2023-02-03T21:56:58.231Z,12.73
2023-02-03T21:59:29.654Z,13.85
2023-02-03T22:01:59.971Z,14.07
2023-02-03T22:04:30.773Z,12.70
2023-02-03T22:06:57.331Z,13.20
2023-02-03T22:09:25.922Z,11.50
2023-02-03T22:11:53.064Z,14.60
2023-02-03T22:14:23.526Z,11.38
2023-02-03T22:16:50.732Z,14.38
2023-02-03T22:19:17.651Z,13.63
2023-02-03T22:21:44.773Z,13.70
2023-02-03T22:24:11.814Z,11.18
2023-02-03T22:26:38.627Z,13.18
2023-02-03T22:29:06.441Z,11.98
2023-02-03T22:31:33.258Z,12.90
2023-02-03T22:33:59.935Z,12.95
2023-02-03T22:36:26.606Z,11.90
2023-02-03T22:38:53.221Z,11.05
2023-02-03T22:41:20.937Z,10.93
2023-02-03T22:43:47.950Z,11.95
2023-02-03T22:46:14.747Z,11.88
2023-02-03T22:48:41.394Z,13.32
2023-02-03T22:51:08.112Z,12.68
2023-02-03T22:53:34.983Z,10.63
2023-02-03T22:56:01.770Z,10.23
2023-02-03T22:58:28.324Z,10.95
2023-02-03T23:00:55.004Z,12.23
2023-02-03T23:03:21.744Z,12.15
2023-02-03T23:05:48.354Z,10.20
2023-02-03T23:08:14.951Z,10.15
2023-02-03T23:10:41.540Z,15.95
2023-02-03T23:13:08.214Z,13.13
2023-02-03T23:15:34.886Z,13.18
2023-02-03T23:18:01.790Z,32.88
2023-02-03T23:20:28.631Z,11.75
2023-02-03T23:22:55.344Z,10.30
2023-02-03T23:25:21.882Z,18.65
2023-02-03T23:27:51.201Z,12.27
2023-02-03T23:30:17.928Z,13.00
2023-02-03T23:32:44.448Z,10.30
2023-02-03T23:35:29.674Z,13.50
2023-02-03T23:37:56.217Z,10.25
2023-02-03T23:40:22.791Z,16.90
2023-02-03T23:42:49.747Z,32.45
2023-02-03T23:45:16.617Z,25.30
2023-02-03T23:47:44.937Z,27.52
2023-02-03T23:50:14.979Z,28.33
2023-02-03T23:52:41.684Z,11.30
2023-02-03T23:55:14.191Z,12.55
2023-02-03T23:57:43.662Z,13.35
